createdAt,value
2022-12-07T00:02:04.341Z,1.16
2022-12-07T00:04:37.313Z,1.19
2022-12-07T00:07:11.724Z,1.22
2022-12-07T00:09:42.119Z,1.22
2022-12-07T00:12:10.911Z,1.20
2022-12-07T00:14:39.625Z,1.16
2022-12-07T00:17:08.667Z,1.10
2022-12-07T00:19:37.360Z,1.03
2022-12-07T00:22:07.488Z,1.00
2022-12-07T00:24:38.544Z,1.00
2022-12-07T00:27:10.446Z,1.02
2022-12-07T00:29:39.651Z,1.06
2022-12-07T00:32:11.596Z,1.12
2022-12-07T00:34:43.836Z,1.14
2022-12-07T00:37:13.452Z,1.16
2022-12-07T00:39:42.476Z,1.19
2022-12-07T00:42:12.449Z,1.24
2022-12-07T00:44:42.782Z,1.28
2022-12-07T00:47:14.368Z,1.27
2022-12-07T00:49:42.962Z,1.29
2022-12-07T00:52:14.613Z,1.30
2022-12-07T00:54:43.344Z,1.31
2022-12-07T00:57:17.532Z,1.30
2022-12-07T00:59:49.132Z,1.28
2022-12-07T01:02:17.855Z,1.30
2022-12-07T01:04:50.801Z,1.34
2022-12-07T01:07:19.436Z,1.39
2022-12-07T01:09:50.396Z,1.45
2022-12-07T01:12:18.940Z,1.48
2022-12-07T01:14:47.712Z,1.49
2022-12-07T01:17:16.315Z,1.51
2022-12-07T01:19:45.403Z,1.52
2022-12-07T01:22:14.017Z,1.48
2022-12-07T01:24:42.603Z,1.45
2022-12-07T01:27:11.136Z,1.45
2022-12-07T01:29:40.156Z,1.44
2022-12-07T01:32:09.358Z,1.45
2022-12-07T01:34:38.162Z,1.49
2022-12-07T01:37:07.263Z,1.53
2022-12-07T01:39:36.204Z,1.59
2022-12-07T01:42:08.067Z,1.67
2022-12-07T01:45:08.383Z,1.75
2022-12-07T01:47:36.826Z,1.79
2022-12-07T01:50:07.328Z,1.78
2022-12-07T01:52:39.093Z,1.78
2022-12-07T01:55:17.281Z,1.76
2022-12-07T01:57:54.453Z,1.76
2022-12-07T02:00:23.588Z,1.73
2022-12-07T02:03:00.826Z,1.71
2022-12-07T02:05:29.883Z,1.72
2022-12-07T02:08:00.457Z,1.74
2022-12-07T02:10:31.819Z,1.75
2022-12-07T02:13:05.312Z,1.78
2022-12-07T02:15:46.732Z,1.78
2022-12-07T02:18:24.027Z,1.81
2022-12-07T02:21:01.945Z,1.82
2022-12-07T02:23:46.913Z,1.82
2022-12-07T02:26:33.113Z,1.81
2022-12-07T02:29:14.641Z,1.76
2022-12-07T02:31:49.257Z,1.71
2022-12-07T02:34:27.454Z,1.70
2022-12-07T02:37:04.349Z,1.68
2022-12-07T02:39:43.428Z,1.67
2022-12-07T02:42:18.275Z,1.69
2022-12-07T02:44:48.175Z,1.72
2022-12-07T02:47:20.653Z,1.74
2022-12-07T02:49:50.454Z,1.78
2022-12-07T02:52:19.160Z,1.81
2022-12-07T02:54:48.201Z,1.85
2022-12-07T02:57:39.479Z,1.85
2022-12-07T03:00:12.023Z,1.83
2022-12-07T03:02:53.419Z,1.77
2022-12-07T03:05:50.275Z,1.72
2022-12-07T03:08:28.424Z,1.69
2022-12-07T03:11:03.486Z,1.69
2022-12-07T03:13:46.424Z,1.71
2022-12-07T03:16:18.116Z,1.72
2022-12-07T03:18:52.512Z,1.72
2022-12-07T03:21:25.676Z,1.71
2022-12-07T03:24:01.411Z,1.67
2022-12-07T03:26:37.145Z,1.63
2022-12-07T03:29:10.720Z,1.59
2022-12-07T03:31:42.495Z,1.53
2022-12-07T03:34:15.485Z,1.52
2022-12-07T03:36:49.345Z,1.53
2022-12-07T03:39:27.583Z,1.53
2022-12-07T03:42:00.301Z,1.53
2022-12-07T03:44:29.535Z,1.52
2022-12-07T03:47:13.204Z,1.52
2022-12-07T03:49:50.332Z,1.52
2022-12-07T03:52:25.403Z,1.51
2022-12-07T03:55:00.851Z,1.44
2022-12-07T03:57:32.330Z,1.39
2022-12-07T04:00:03.067Z,1.38
2022-12-07T04:02:42.155Z,1.36
2022-12-07T04:05:14.543Z,1.33
2022-12-07T04:07:43.607Z,1.33
2022-12-07T04:10:13.030Z,1.33
2022-12-07T04:12:41.888Z,1.35
2022-12-07T04:15:11.321Z,1.35
2022-12-07T04:17:40.118Z,1.33
2022-12-07T04:20:11.788Z,1.33
2022-12-07T04:22:40.563Z,1.29
2022-12-07T04:25:10.072Z,1.25
2022-12-07T04:27:38.629Z,1.21
2022-12-07T04:30:10.406Z,1.18
2022-12-07T04:32:39.301Z,1.19
2022-12-07T04:35:09.413Z,1.19
2022-12-07T04:37:39.860Z,1.18
2022-12-07T04:40:11.534Z,1.19
2022-12-07T04:42:42.485Z,1.20
2022-12-07T04:45:12.031Z,1.21
2022-12-07T04:47:48.947Z,1.18
2022-12-07T04:50:18.055Z,1.13
2022-12-07T04:52:47.802Z,1.08
2022-12-07T04:55:16.629Z,1.05
2022-12-07T04:57:45.790Z,1.03
2022-12-07T05:00:14.827Z,1.02
2022-12-07T05:02:43.547Z,0.99
2022-12-07T05:05:12.097Z,0.98
2022-12-07T05:07:40.639Z,0.96
2022-12-07T05:10:11.199Z,0.95
2022-12-07T05:12:40.005Z,0.94
2022-12-07T05:15:12.085Z,0.97
2022-12-07T05:17:41.014Z,0.95
2022-12-07T05:20:11.996Z,0.94
2022-12-07T05:22:40.482Z,0.91
2022-12-07T05:25:11.012Z,0.89
2022-12-07T05:27:39.746Z,0.84
2022-12-07T05:30:10.280Z,0.82
2022-12-07T05:32:38.873Z,0.81
2022-12-07T05:35:09.349Z,0.79
2022-12-07T05:37:37.776Z,0.78
2022-12-07T05:40:09.442Z,0.79
2022-12-07T05:42:42.163Z,0.82
2022-12-07T05:45:11.685Z,0.82
2022-12-07T05:47:40.134Z,0.78
2022-12-07T05:50:14.513Z,0.77
2022-12-07T05:52:47.304Z,0.72
2022-12-07T05:55:19.430Z,0.67
2022-12-07T05:58:04.813Z,0.63
2022-12-07T06:00:36.441Z,0.61
2022-12-07T06:03:05.433Z,0.60
2022-12-07T06:05:33.991Z,0.61
2022-12-07T06:08:05.848Z,0.61
2022-12-07T06:10:40.590Z,0.60
2022-12-07T06:13:09.207Z,0.60
2022-12-07T06:15:39.502Z,0.60
2022-12-07T06:18:13.095Z,0.59
2022-12-07T06:20:44.837Z,0.60
2022-12-07T06:23:14.803Z,0.56
2022-12-07T06:25:47.669Z,0.52
2022-12-07T06:28:16.096Z,0.49
2022-12-07T06:30:44.911Z,0.46
2022-12-07T06:33:19.528Z,0.46
2022-12-07T06:35:48.834Z,0.47
2022-12-07T06:38:17.355Z,0.47
2022-12-07T06:40:45.952Z,0.49
2022-12-07T06:43:15.065Z,0.51
2022-12-07T06:45:43.864Z,0.53
2022-12-07T06:48:12.519Z,0.54
2022-12-07T06:50:41.442Z,0.55
2022-12-07T06:53:10.795Z,0.55
2022-12-07T06:55:39.526Z,0.52
2022-12-07T06:58:08.444Z,0.48
2022-12-07T07:00:36.843Z,0.45
2022-12-07T07:03:05.372Z,0.45
2022-12-07T07:05:34.101Z,0.45
2022-12-07T07:10:51.466Z,0.46
2022-12-07T07:13:20.253Z,0.48
2022-12-07T07:15:48.693Z,0.49
2022-12-07T07:18:17.347Z,0.51
2022-12-07T07:20:45.741Z,0.51
2022-12-07T07:23:14.286Z,0.51
2022-12-07T07:25:43.275Z,0.51
2022-12-07T07:28:11.944Z,0.49
2022-12-07T07:30:40.428Z,0.46
2022-12-07T07:33:10.042Z,0.45
2022-12-07T07:35:39.333Z,0.46
2022-12-07T07:38:09.311Z,0.48
2022-12-07T07:40:38.165Z,0.49
2022-12-07T07:43:06.635Z,0.49
2022-12-07T07:45:35.154Z,0.53
2022-12-07T07:48:11.086Z,0.55
2022-12-07T07:50:56.139Z,0.57
2022-12-07T07:53:30.344Z,0.58
2022-12-07T07:55:59.923Z,0.57
2022-12-07T07:58:28.976Z,0.55
2022-12-07T08:00:59.079Z,0.55
2022-12-07T08:03:29.022Z,0.57
2022-12-07T08:06:02.312Z,0.59
2022-12-07T08:08:31.054Z,0.59
2022-12-07T08:55:52.180Z,1.10
2022-12-07T08:58:21.710Z,1.18
2022-12-07T09:00:52.012Z,1.23
2022-12-07T09:03:20.527Z,1.26
2022-12-07T09:05:49.546Z,1.27
2022-12-07T09:08:18.891Z,1.31
2022-12-07T09:10:49.809Z,1.36
2022-12-07T09:13:18.934Z,1.43
2022-12-07T09:15:47.577Z,1.48
2022-12-07T09:18:16.341Z,1.54
2022-12-07T09:20:48.917Z,1.62
2022-12-07T09:23:21.773Z,1.70
2022-12-07T09:25:50.907Z,1.76
2022-12-07T09:28:19.582Z,1.79
2022-12-07T09:31:21.669Z,1.81
2022-12-07T09:33:44.871Z,1.82
2022-12-07T09:36:13.863Z,1.82
2022-12-07T09:38:43.797Z,1.83
2022-12-07T09:41:12.831Z,1.86
2022-12-07T09:43:44.546Z,1.89
2022-12-07T09:46:16.556Z,1.93
2022-12-07T09:48:50.806Z,1.96
2022-12-07T09:51:24.927Z,1.96
2022-12-07T09:54:02.762Z,1.95
2022-12-07T09:56:37.055Z,1.95
2022-12-07T09:59:20.287Z,1.96
2022-12-07T10:01:53.587Z,1.98
2022-12-07T10:04:35.693Z,2.01
2022-12-07T10:07:04.494Z,2.06
2022-12-07T10:09:35.647Z,2.10
2022-12-07T10:12:09.297Z,2.15
2022-12-07T10:17:36.083Z,2.20
2022-12-07T10:20:24.175Z,2.22
2022-12-07T10:23:14.228Z,2.24
2022-12-07T10:25:44.507Z,2.25
2022-12-07T10:28:16.162Z,2.26
2022-12-07T10:30:51.724Z,2.27
2022-12-07T10:33:32.031Z,2.30
2022-12-07T10:36:16.289Z,2.32
2022-12-07T10:38:49.077Z,2.30
2022-12-07T10:41:19.461Z,2.27
2022-12-07T10:43:59.042Z,2.24
2022-12-07T10:47:02.243Z,2.22
2022-12-07T10:49:49.196Z,2.25
2022-12-07T10:52:34.001Z,2.28
2022-12-07T10:55:17.034Z,2.32
2022-12-07T10:58:01.672Z,2.36
2022-12-07T11:00:44.730Z,2.40
2022-12-07T11:03:37.246Z,2.44
2022-12-07T11:06:15.358Z,2.43
2022-12-07T11:09:17.134Z,2.41
2022-12-07T11:11:59.713Z,2.40
2022-12-07T11:14:37.665Z,2.39
2022-12-07T11:17:14.811Z,2.38
2022-12-07T11:20:00.732Z,2.37
2022-12-07T11:22:39.749Z,2.35
2022-12-07T11:25:28.582Z,2.31
2022-12-07T11:28:15.118Z,2.28
2022-12-07T11:30:55.726Z,2.24
2022-12-07T11:33:46.977Z,2.23
2022-12-07T11:36:37.994Z,2.26
2022-12-07T11:39:18.027Z,2.28
2022-12-07T11:41:51.381Z,2.32
2022-12-07T11:44:32.848Z,2.35
2022-12-07T11:47:12.324Z,2.35
2022-12-07T11:49:55.581Z,2.35
2022-12-07T11:52:38.850Z,2.34
2022-12-07T11:55:19.304Z,2.32
2022-12-07T11:57:55.003Z,2.30
2022-12-07T12:00:24.127Z,2.32
2022-12-07T12:03:03.237Z,2.36
2022-12-07T12:05:32.082Z,2.37
2022-12-07T12:11:19.498Z,2.35
2022-12-07T12:17:33.602Z,2.25
2022-12-07T12:20:17.397Z,2.19
2022-12-07T12:22:52.225Z,2.15
2022-12-07T12:25:24.475Z,2.15
2022-12-07T12:28:02.393Z,2.20
2022-12-07T12:30:38.034Z,2.25
2022-12-07T12:33:19.118Z,2.27
2022-12-07T12:36:08.209Z,2.28
2022-12-07T12:39:00.670Z,2.30
2022-12-07T12:42:07.116Z,2.26
2022-12-07T12:45:12.965Z,2.21
2022-12-07T12:47:53.517Z,2.18
2022-12-07T12:50:25.624Z,2.16
2022-12-07T12:53:15.112Z,2.14
2022-12-07T12:56:38.305Z,2.15
2022-12-07T12:59:39.819Z,2.20
2022-12-07T13:02:32.069Z,2.17
2022-12-07T13:05:15.628Z,2.11
2022-12-07T13:08:13.110Z,2.05
2022-12-07T13:10:44.361Z,2.00
2022-12-07T13:13:46.071Z,1.98
2022-12-07T13:16:51.095Z,2.00
2022-12-07T13:20:06.866Z,2.01
2022-12-07T13:22:49.609Z,2.04
2022-12-07T13:25:30.683Z,2.06
2022-12-07T13:28:09.012Z,2.06
2022-12-07T13:30:44.247Z,2.04
2022-12-07T13:33:19.952Z,1.99
2022-12-07T13:35:48.543Z,1.96
2022-12-07T13:38:29.009Z,1.94
2022-12-07T13:41:18.392Z,1.92
2022-12-07T13:43:54.024Z,1.91
2022-12-07T13:46:46.268Z,1.91
2022-12-07T13:49:22.421Z,1.90
2022-12-07T13:51:55.511Z,1.86
2022-12-07T13:54:24.563Z,1.81
2022-12-07T13:56:55.949Z,1.77
2022-12-07T13:59:35.675Z,1.75
2022-12-07T14:02:21.583Z,1.73
2022-12-07T14:04:52.377Z,1.69
2022-12-07T14:07:24.559Z,1.65
2022-12-07T14:10:00.762Z,1.61
2022-12-07T14:12:37.687Z,1.58
2022-12-07T14:15:20.544Z,1.56
2022-12-07T14:17:57.072Z,1.51
2022-12-07T14:20:40.821Z,1.45
2022-12-07T14:23:26.671Z,1.41
2022-12-07T14:26:07.013Z,1.38
2022-12-07T14:28:45.422Z,1.38
2022-12-07T14:31:19.028Z,1.37
2022-12-07T14:33:53.467Z,1.35
2022-12-07T14:36:51.935Z,1.38
2022-12-07T14:39:24.267Z,1.33
2022-12-07T14:41:56.531Z,1.29
2022-12-07T14:44:35.525Z,1.22
2022-12-07T14:50:14.576Z,1.12
2022-12-07T14:55:50.121Z,1.09
2022-12-07T14:58:22.712Z,1.10
2022-12-07T15:00:55.002Z,1.10
2022-12-07T15:03:30.942Z,1.11
2022-12-07T15:06:11.608Z,1.11
2022-12-07T15:08:50.219Z,1.10
2022-12-07T15:11:46.301Z,1.08
2022-12-07T15:14:22.429Z,1.05
2022-12-07T15:17:22.062Z,0.99
2022-12-07T15:19:49.576Z,0.93
2022-12-07T15:22:38.182Z,0.93
2022-12-07T15:25:18.893Z,0.94
2022-12-07T15:27:53.944Z,0.95
2022-12-07T15:30:26.251Z,0.94
2022-12-07T15:32:59.459Z,0.92
2022-12-07T15:35:32.493Z,0.91
2022-12-07T15:38:07.479Z,0.89
2022-12-07T15:40:39.895Z,0.88
2022-12-07T15:43:27.359Z,0.88
2022-12-07T15:46:02.783Z,0.88
2022-12-07T15:48:38.411Z,0.90
2022-12-07T15:51:13.581Z,0.92
2022-12-07T15:53:46.846Z,0.95
2022-12-07T15:56:21.713Z,0.98
2022-12-07T15:58:54.655Z,1.01
2022-12-07T16:01:27.118Z,1.04
2022-12-07T16:04:02.990Z,1.04
2022-12-07T16:06:38.034Z,1.02
2022-12-07T16:09:12.998Z,0.99
2022-12-07T16:11:45.311Z,0.98
2022-12-07T16:14:17.424Z,0.99
2022-12-07T16:16:50.676Z,1.00
2022-12-07T16:19:37.663Z,1.02
2022-12-07T16:22:10.372Z,1.04
2022-12-07T16:24:45.261Z,1.05
2022-12-07T16:27:17.441Z,1.05
2022-12-07T16:29:49.604Z,1.04
2022-12-07T16:32:25.201Z,1.01
2022-12-07T16:35:02.576Z,0.97
2022-12-07T16:37:35.414Z,0.91
2022-12-07T16:40:09.177Z,0.87
2022-12-07T16:42:41.961Z,0.85
2022-12-07T16:45:19.356Z,0.85
2022-12-07T16:47:53.701Z,0.87
2022-12-07T16:50:25.815Z,0.92
2022-12-07T16:53:00.518Z,0.97
2022-12-07T16:55:34.288Z,1.00
2022-12-07T16:58:08.494Z,1.02
2022-12-07T17:00:47.975Z,1.01
2022-12-07T17:03:20.867Z,1.01
2022-12-07T17:05:55.759Z,1.00
2022-12-07T17:08:31.606Z,0.99
2022-12-07T17:11:11.383Z,0.98
2022-12-07T17:14:04.454Z,0.99
2022-12-07T17:16:49.366Z,1.02
2022-12-07T17:19:25.564Z,1.07
2022-12-07T17:22:00.667Z,1.10
2022-12-07T17:24:33.012Z,1.12
2022-12-07T17:27:05.127Z,1.12
2022-12-07T17:29:37.755Z,1.10
2022-12-07T17:32:11.838Z,1.06
2022-12-07T17:34:44.605Z,1.05
2022-12-07T17:37:17.080Z,1.07
2022-12-07T17:39:51.134Z,1.10
2022-12-07T17:42:40.741Z,1.14
2022-12-07T17:45:14.627Z,1.17
2022-12-07T17:47:47.988Z,1.20
2022-12-07T17:50:44.978Z,1.22
2022-12-07T17:53:24.363Z,1.21
2022-12-07T17:56:26.911Z,1.17
2022-12-07T17:58:54.909Z,1.15
2022-12-07T18:01:34.240Z,1.14
2022-12-07T18:04:23.228Z,1.16
2022-12-07T18:07:01.613Z,1.18
2022-12-07T18:09:33.988Z,1.22
2022-12-07T18:12:10.969Z,1.25
2022-12-07T18:14:43.547Z,1.28
2022-12-07T18:17:23.923Z,1.30
2022-12-07T18:19:57.445Z,1.31
2022-12-07T18:22:33.464Z,1.30
2022-12-07T18:25:06.582Z,1.29
2022-12-07T18:27:41.652Z,1.30
2022-12-07T18:30:42.056Z,1.32
2022-12-07T18:33:14.753Z,1.34
2022-12-07T18:35:57.647Z,1.37
2022-12-07T18:38:42.251Z,1.41
2022-12-07T18:41:16.062Z,1.42
2022-12-07T18:43:49.741Z,1.42
2022-12-07T18:46:24.566Z,1.42
2022-12-07T18:49:06.594Z,1.39
2022-12-07T18:51:40.940Z,1.38
2022-12-07T18:54:18.217Z,1.38
2022-12-07T18:56:56.896Z,1.39
2022-12-07T18:59:50.161Z,1.39
2022-12-07T19:02:23.530Z,1.39
2022-12-07T19:04:59.642Z,1.38
2022-12-07T19:07:32.235Z,1.36
2022-12-07T19:10:06.348Z,1.34
2022-12-07T19:12:46.470Z,1.31
2022-12-07T19:15:23.612Z,1.29
2022-12-07T19:17:57.680Z,1.29
2022-12-07T19:20:32.020Z,1.30
2022-12-07T19:23:05.024Z,1.29
2022-12-07T19:25:45.739Z,1.29
2022-12-07T19:28:17.776Z,1.29
2022-12-07T19:30:53.995Z,1.29
2022-12-07T19:33:30.225Z,1.25
2022-12-07T19:36:16.504Z,1.24
2022-12-07T19:38:48.851Z,1.23
2022-12-07T19:41:37.054Z,1.23
2022-12-07T19:44:13.557Z,1.24
2022-12-07T19:47:02.714Z,1.23
2022-12-07T19:49:38.989Z,1.19
2022-12-07T19:52:12.498Z,1.13
2022-12-07T19:54:44.638Z,1.09
2022-12-07T19:57:18.207Z,1.04
2022-12-07T19:59:50.441Z,1.00
2022-12-07T20:02:23.398Z,0.97
2022-12-07T20:05:06.208Z,0.93
2022-12-07T20:07:39.402Z,0.88
2022-12-07T20:10:13.410Z,0.82
2022-12-07T20:13:05.179Z,0.76
2022-12-07T20:15:40.032Z,0.67
2022-12-07T20:18:15.961Z,0.56
2022-12-07T20:20:56.599Z,0.49
2022-12-07T20:23:30.624Z,0.41
2022-12-07T20:26:12.508Z,0.37
2022-12-07T20:28:46.717Z,0.34
2022-12-07T20:31:19.689Z,0.32
2022-12-07T20:33:54.741Z,0.30
2022-12-07T20:36:30.479Z,0.26
2022-12-07T20:39:04.296Z,0.21
2022-12-07T20:41:55.573Z,0.15
2022-12-07T20:44:27.791Z,0.11
2022-12-07T20:47:00.802Z,0.10
2022-12-07T20:49:33.226Z,0.08
2022-12-07T20:52:06.147Z,0.07
2022-12-07T20:54:39.059Z,0.06
2022-12-07T20:57:11.148Z,0.07
2022-12-07T20:59:46.511Z,0.05
2022-12-07T21:02:23.304Z,0.02
2022-12-07T21:04:55.644Z,-0.01
2022-12-07T21:07:28.075Z,-0.04
2022-12-07T21:10:02.941Z,-0.07
2022-12-07T21:12:35.020Z,-0.11
2022-12-07T21:15:08.929Z,-0.17
2022-12-07T21:17:41.009Z,-0.20
2022-12-07T21:20:16.120Z,-0.23
2022-12-07T21:22:53.421Z,-0.24
2022-12-07T21:25:25.896Z,-0.24
2022-12-07T21:28:00.610Z,-0.24
2022-12-07T21:30:50.840Z,-0.26
2022-12-07T21:33:28.574Z,-0.29
2022-12-07T21:36:04.319Z,-0.31
2022-12-07T21:38:47.690Z,-0.34
2022-12-07T21:41:27.555Z,-0.37
2022-12-07T21:44:01.115Z,-0.40
2022-12-07T21:46:41.518Z,-0.42
2022-12-07T21:49:20.647Z,-0.42
2022-12-07T21:52:02.997Z,-0.40
2022-12-07T21:54:35.324Z,-0.37
2022-12-07T21:57:07.556Z,-0.32
2022-12-07T21:59:39.722Z,-0.28
2022-12-07T22:02:26.333Z,-0.26
2022-12-07T22:04:58.638Z,-0.26
2022-12-07T22:07:34.340Z,-0.26
2022-12-07T22:10:08.204Z,-0.24
2022-12-07T22:12:40.274Z,-0.22
2022-12-07T22:15:15.116Z,-0.17
2022-12-07T22:17:53.395Z,-0.12
2022-12-07T22:20:34.282Z,-0.06
2022-12-07T22:23:06.401Z,-0.01
2022-12-07T22:25:41.738Z,0.01
2022-12-07T22:28:13.855Z,0.02
2022-12-07T22:30:45.976Z,0.01
2022-12-07T22:33:25.948Z,-0.02
2022-12-07T22:35:58.216Z,-0.05
2022-12-07T22:38:31.691Z,-0.08
2022-12-07T22:41:12.005Z,-0.10
2022-12-07T22:43:44.571Z,-0.09
2022-12-07T22:46:27.631Z,-0.07
2022-12-07T22:49:01.231Z,-0.03
2022-12-07T22:51:37.727Z,0.00
2022-12-07T22:54:15.335Z,0.03
2022-12-07T22:56:53.126Z,0.04
2022-12-07T22:59:26.270Z,0.03
2022-12-07T23:02:00.009Z,0.02
2022-12-07T23:04:32.425Z,0.01
2022-12-07T23:07:05.242Z,-0.00
2022-12-07T23:09:37.708Z,0.01
2022-12-07T23:12:24.716Z,0.03
2022-12-07T23:14:56.972Z,0.05
2022-12-07T23:17:28.992Z,0.10
2022-12-07T23:20:02.184Z,0.11
2022-12-07T23:22:34.367Z,0.13
2022-12-07T23:25:07.593Z,0.14
2022-12-07T23:27:39.850Z,0.13
2022-12-07T23:30:13.621Z,0.12
2022-12-07T23:32:45.820Z,0.10
2022-12-07T23:35:17.970Z,0.08
2022-12-07T23:37:53.281Z,0.08
2022-12-07T23:40:25.712Z,0.10
2022-12-07T23:42:58.433Z,0.13
2022-12-07T23:45:31.378Z,0.17
2022-12-07T23:48:06.278Z,0.20
2022-12-07T23:50:38.624Z,0.22
2022-12-07T23:53:10.654Z,0.25
2022-12-07T23:55:48.229Z,0.25
2022-12-07T23:58:22.669Z,0.23
